Terminal Aerodrome Forecast
Issued by NWS

Home | Current Version | Previous Version | Text Only | Print | Product List | Glossary On
Versions: 1 2 3 4 5 6 7 8 9 10 11 12 13 14
000
FTUS46 KMTR 232340
TAFOAK
TAF
KOAK 232340Z 2400/2506 29014KT P6SM SKC
     FM240400 29008KT P6SM SKC
     FM240800 VRB05KT P6SM FEW010
     FM241300 26004KT P6SM BKN010
     FM241700 VRB04KT P6SM SCT012
     FM241900 29012KT P6SM SKC=

USA.gov is the U.S. government's official web portal to all federal, state and local government web resources and services.